Wrangell Airport
PAWG : now visible

Airfield :











YOU CAN JOIN US ON...

 
LOGIN :

Register | Disclaimer

   EN    FR    IT 

 









Legend :    VFR   Marginal VFR   IFR   Intensive IFR   Very Intensive IFR
Visi :
Ceiling :
>= 8 km
>= 3000ft
5 to 8 km
1000 to 3000 ft
1500m to 5 km
500 to 1000 ft
800 to 1500m
200 to 500 ft
< 800m
< 200 ft
Symbols :   Thunderstorms  Fog  Heavy snow  Heavy precipitations  Wind > 20 kt






- Airport Elevation : 49 ft
- IATA code : WRG


PAWG - Wrangell

CURRENT METAR :
  • 270456Z VRB06KT 10SM -RA FEW020 BKN025 OVC030 06/04 A2984 RMK AO2 SLP103 P0000 T00560039

EXPIRED METARs :
  • 270356Z 06004KT 10SM -RA FEW020 BKN040 OVC060 05/03 A2980 RMK AO2 SLP092 P0000 T00500033
  • 270256Z 10018G27KT 10SM -RA BKN040 OVC060 05/02 A2976 RMK AO2 PK WND 08029/0223 SLP079 P0000 60004 T00500022 55027

TAF PAWG
Valid from the 27 at 06:00 until the 28 at 06:00 UTC


270526Z 2706/2806 10009KT P6SM -RA BKN025 OVC040 WS020/16040KT
FM270900 10010KT P6SM -RA BKN015 OVC030 WS020/19035KT
FM271700 12013G22KT 2SM -RA BR OVC007
FM280000 16012G20KT 4SM -RA BR OVC015 WS020/23035KT AMD LTD TO CLD VIS AND WIND 2706/2715



MET'MAP, your aeronautical weather chart ! - Copyright ORBIFLY December 2007 - Disclaimer

ORBIFLY MET'MAP TEAM :

Programming & Development : Alexandra Zaïnal
Concept & original design : Baudouin d'Aumeries
Assistance for programming : Marc-Olivier Méhu
Technical & hardware support : Manuel Goepfert

Contact : metmap@orbifly.com




SOURCES & CREDITS :

   NOAA       Earth
Advisory